Terminal Aerodrome Forecast
Issued by NWS

Home | Current Version | Previous Version | Text Only | Print | Product List | Glossary On
Versions: 1 2 3 4 5 6 7 8 9 10 11 12 13 14 15 16
000
FTUS43 KMPX 290945 AAB
TAFAXN
TAF AMD
KAXN 290945Z 2910/3006 30015KT P6SM OVC015
     FM291500 31017G26KT P6SM VCSH OVC015
      TEMPO 2919/2922 6SM -SHRA BR OVC010
     FM300100 31010KT P6SM BKN020 OVC050=

USA.gov is the U.S. government's official web portal to all federal, state and local government web resources and services.